Time;durP1;ratioP1;P1;durP2;ratioP2;P2;SDS_P1;SDS_P2;PMS_P1;PMS_P2;Temp;Humidity;BMP_temperature;BMP_pressure;BME280_temperature;BME280_humidity;BME280_pressure;Samples;Min_cycle;Max_cycle;Signal;HPM_P1;HPM_P2
2022/10/12 00:00:34;;;;;;;32.42;19.10;;;12.50;94.30;;;;;;5035695;28;20022;-73
2022/10/12 00:02:59;;;;;;;30.75;18.10;;;12.50;94.40;;;;;;5035469;28;20470;-73
2022/10/12 00:05:25;;;;;;;24.42;14.70;;;12.40;94.60;;;;;;5035502;28;20040;-73
2022/10/12 00:07:51;;;;;;;22.08;12.75;;;12.40;94.70;;;;;;5034548;28;20026;-73
2022/10/12 00:10:17;;;;;;;17.00;11.10;;;12.50;94.80;;;;;;5046711;28;20028;-74
2022/10/12 00:12:43;;;;;;;24.13;12.15;;;12.40;94.70;;;;;;5039265;28;20029;-74
2022/10/12 00:15:10;;;;;;;22.65;11.70;;;12.40;94.50;;;;;;5035392;28;20029;-74
2022/10/12 00:17:36;;;;;;;20.08;11.48;;;12.40;94.60;;;;;;5035146;28;20052;-74
2022/10/12 00:20:03;;;;;;;18.00;10.93;;;12.30;94.80;;;;;;5035354;28;20462;-73
2022/10/12 00:22:29;;;;;;;20.58;10.77;;;12.30;95.00;;;;;;5035145;28;20041;-74
2022/10/12 00:24:54;;;;;;;18.73;9.50;;;12.30;95.10;;;;;;5035200;28;20033;-73
2022/10/12 00:27:20;;;;;;;18.90;8.75;;;12.30;95.00;;;;;;5049480;28;20047;-73
2022/10/12 00:29:46;;;;;;;16.08;8.23;;;12.30;95.00;;;;;;5055227;28;20032;-72
2022/10/12 00:32:11;;;;;;;13.68;8.40;;;12.30;95.00;;;;;;5054818;28;20021;-71
2022/10/12 00:34:37;;;;;;;18.77;8.63;;;12.30;95.10;;;;;;5054957;28;20104;-72
2022/10/12 00:37:02;;;;;;;17.70;9.45;;;12.30;95.10;;;;;;5054995;28;20029;-71
2022/10/12 00:39:28;;;;;;;16.58;9.75;;;12.20;94.80;;;;;;5054773;28;20025;-73
2022/10/12 00:41:53;;;;;;;18.08;10.20;;;12.20;94.90;;;;;;5041561;28;20025;-72
2022/10/12 00:44:41;;;;;;;29.50;14.13;;;12.20;95.00;;;;;;5051486;28;20036;-72
2022/10/12 00:47:26;;;;;;;20.58;12.07;;;12.20;94.80;;;;;;5054682;28;20021;-73
2022/10/12 00:50:17;;;;;;;24.63;13.32;;;12.20;94.80;;;;;;5054756;28;20021;-74
2022/10/12 00:52:56;;;;;;;21.55;11.75;;;12.20;94.80;;;;;;5054774;28;20021;-73
2022/10/12 00:55:24;;;;;;;25.70;12.35;;;12.10;94.70;;;;;;5054495;28;20029;-73
2022/10/12 00:57:51;;;;;;;21.90;11.10;;;12.10;94.80;;;;;;5054033;28;20032;-74
2022/10/12 01:00:18;;;;;;;17.65;8.63;;;12.10;95.00;;;;;;5054115;28;20110;-71
2022/10/12 01:02:47;;;;;;;16.52;8.18;;;12.10;95.20;;;;;;5054317;28;20106;-73
2022/10/12 01:05:13;;;;;;;16.65;7.75;;;12.10;95.40;;;;;;5043054;28;20040;-73
2022/10/12 01:07:39;;;;;;;18.02;7.97;;;12.00;95.40;;;;;;5034501;28;20038;-72
2022/10/12 01:10:05;;;;;;;18.05;8.70;;;12.00;95.40;;;;;;5032956;28;20021;-72
2022/10/12 01:12:32;;;;;;;15.32;7.20;;;12.00;95.50;;;;;;5034280;28;20029;-73
2022/10/12 01:14:58;;;;;;;18.25;8.82;;;12.00;95.60;;;;;;5052639;28;20029;-72
2022/10/12 01:17:47;;;;;;;16.55;9.00;;;12.00;95.60;;;;;;5054024;28;20059;-73
2022/10/12 01:20:40;;;;;;;19.00;8.70;;;12.00;95.60;;;;;;5054085;28;20423;-74
2022/10/12 01:23:33;;;;;;;13.48;8.18;;;12.00;95.40;;;;;;5054090;28;20033;-74
2022/10/12 01:26:24;;;;;;;19.23;8.75;;;12.00;95.50;;;;;;5054081;28;20493;-75
2022/10/12 01:29:28;;;;;;;14.98;7.97;;;11.90;95.60;;;;;;5036485;28;20061;-74
2022/10/12 01:32:02;;;;;;;15.38;8.40;;;11.90;95.40;;;;;;5013893;28;20048;-74
2022/10/12 01:34:42;;;;;;;15.07;8.40;;;11.90;95.30;;;;;;5012051;28;20025;-74
2022/10/12 01:37:38;;;;;;;15.75;8.70;;;11.80;95.30;;;;;;5013525;28;20488;-74
2022/10/12 01:40:10;;;;;;;17.65;9.25;;;11.80;95.50;;;;;;5014274;28;20044;-73
2022/10/12 01:42:40;;;;;;;16.08;9.13;;;11.80;95.30;;;;;;5020855;28;20444;-72
2022/10/12 01:45:10;;;;;;;15.57;7.93;;;11.70;95.10;;;;;;5052398;28;20025;-73
2022/10/12 01:47:38;;;;;;;17.98;8.25;;;11.80;95.10;;;;;;5053315;28;20119;-73
2022/10/12 01:50:09;;;;;;;14.23;7.78;;;11.70;95.30;;;;;;5053658;28;20053;-73
2022/10/12 01:53:02;;;;;;;17.63;8.00;;;11.70;95.40;;;;;;5053420;28;20055;-73
2022/10/12 01:55:38;;;;;;;18.02;7.60;;;11.70;95.60;;;;;;5051787;28;20120;-73
2022/10/12 01:58:22;;;;;;;14.15;7.78;;;11.70;95.70;;;;;;5053203;28;20488;-71
2022/10/12 02:01:12;;;;;;;15.20;7.00;;;11.70;95.80;;;;;;5053461;28;20025;-73
2022/10/12 02:03:59;;;;;;;14.25;7.07;;;11.70;95.90;;;;;;5053317;28;20020;-73
2022/10/12 02:06:33;;;;;;;13.73;7.93;;;11.70;95.80;;;;;;5053043;28;20021;-73
2022/10/12 02:09:06;;;;;;;15.38;7.93;;;11.60;95.80;;;;;;5053398;28;20490;-73
2022/10/12 02:11:36;;;;;;;14.32;7.30;;;11.60;96.00;;;;;;5036286;28;20026;-69
2022/10/12 02:14:10;;;;;;;12.40;6.88;;;11.60;96.10;;;;;;5053384;28;20537;-72
2022/10/12 02:16:45;;;;;;;14.00;7.18;;;11.60;96.20;;;;;;5052748;28;20036;-72
2022/10/12 02:19:14;;;;;;;11.50;6.00;;;11.60;96.10;;;;;;5053146;28;20100;-73
2022/10/12 02:21:41;;;;;;;13.55;6.85;;;11.60;96.10;;;;;;5052928;28;20025;-73
2022/10/12 02:24:09;;;;;;;11.30;5.95;;;11.60;96.10;;;;;;5052964;28;20131;-73
2022/10/12 02:26:39;;;;;;;11.18;6.15;;;11.60;96.10;;;;;;5047496;28;20072;-74
2022/10/12 02:29:09;;;;;;;15.73;7.03;;;11.60;96.20;;;;;;5032835;28;20030;-74
2022/10/12 02:31:46;;;;;;;13.23;6.55;;;11.60;96.30;;;;;;5032423;28;20684;-73
2022/10/12 02:34:23;;;;;;;10.02;6.03;;;11.60;96.20;;;;;;5033306;28;20459;-74
2022/10/12 02:37:05;;;;;;;14.93;6.65;;;11.50;96.30;;;;;;5032716;28;20034;-73
2022/10/12 02:39:46;;;;;;;9.65;6.40;;;11.60;96.40;;;;;;5031748;28;20478;-73
2022/10/12 02:42:18;;;;;;;13.23;6.87;;;11.60;96.20;;;;;;5044302;28;20115;-73
2022/10/12 02:44:45;;;;;;;15.32;7.15;;;11.50;96.10;;;;;;5052767;28;20025;-74
2022/10/12 02:47:13;;;;;;;12.45;6.15;;;11.50;96.20;;;;;;5052644;28;20025;-74
2022/10/12 02:49:40;;;;;;;13.55;6.63;;;11.50;96.60;;;;;;5036974;28;20418;-72
2022/10/12 02:52:07;;;;;;;13.30;6.03;;;11.50;96.10;;;;;;5052373;28;20052;-73
2022/10/12 02:54:33;;;;;;;12.13;6.35;;;11.50;96.30;;;;;;5052885;28;20100;-73
2022/10/12 02:56:58;;;;;;;14.68;6.55;;;11.50;96.30;;;;;;5052528;28;20442;-70
2022/10/12 02:59:24;;;;;;;13.68;6.10;;;11.40;96.20;;;;;;5040143;28;20034;-69
2022/10/12 03:01:50;;;;;;;14.93;6.95;;;11.40;96.30;;;;;;5032595;28;20025;-68
2022/10/12 03:04:15;;;;;;;13.38;7.35;;;11.40;96.40;;;;;;5032592;28;20034;-74
2022/10/12 03:06:41;;;;;;;12.05;7.25;;;11.40;96.30;;;;;;5032732;28;20056;-73
2022/10/12 03:09:08;;;;;;;16.58;7.35;;;11.50;96.30;;;;;;5032656;28;20438;-73
2022/10/12 03:11:36;;;;;;;14.65;7.28;;;11.40;96.10;;;;;;5032361;28;20103;-73
2022/10/12 03:14:02;;;;;;;13.48;7.55;;;11.40;96.20;;;;;;5043173;28;20032;-73
2022/10/12 03:16:28;;;;;;;17.42;7.38;;;11.40;96.20;;;;;;5052475;28;20096;-73
2022/10/12 03:18:54;;;;;;;14.85;7.28;;;11.40;96.20;;;;;;5052306;28;20092;-73
2022/10/12 03:21:19;;;;;;;13.02;7.88;;;11.40;96.30;;;;;;5052402;28;20075;-73
2022/10/12 03:23:45;;;;;;;13.57;6.90;;;11.40;96.40;;;;;;5052260;28;20087;-73
2022/10/12 03:26:11;;;;;;;14.18;7.40;;;11.40;96.50;;;;;;5052395;28;20451;-73
2022/10/12 03:28:36;;;;;;;14.85;6.85;;;11.40;96.50;;;;;;5039134;28;20029;-73
2022/10/12 03:31:02;;;;;;;16.25;8.68;;;11.40;96.50;;;;;;5048195;28;20024;-73
2022/10/12 03:33:28;;;;;;;9.90;6.95;;;11.30;96.50;;;;;;5050566;28;20024;-73
2022/10/12 03:35:54;;;;;;;14.63;7.20;;;11.30;96.60;;;;;;5052280;28;20040;-73
2022/10/12 03:38:19;;;;;;;14.00;8.23;;;11.40;96.80;;;;;;5052208;28;20028;-73
2022/10/12 03:40:45;;;;;;;14.98;7.88;;;11.30;96.80;;;;;;5050909;28;20048;-73
2022/10/12 03:43:11;;;;;;;15.27;7.97;;;11.30;96.80;;;;;;5055720;28;20497;-73
2022/10/12 03:45:37;;;;;;;15.88;8.02;;;11.40;96.90;;;;;;5051753;28;20025;-73
2022/10/12 03:48:04;;;;;;;14.23;8.05;;;11.40;96.80;;;;;;5037805;28;20034;-73
2022/10/12 03:50:32;;;;;;;17.80;8.60;;;11.40;96.80;;;;;;5035937;28;20395;-73
2022/10/12 03:52:57;;;;;;;13.38;8.10;;;11.30;96.80;;;;;;5035721;28;20557;-73
2022/10/12 03:55:23;;;;;;;17.55;8.18;;;11.40;96.80;;;;;;5035565;28;20637;-73
2022/10/12 03:57:49;;;;;;;20.83;8.48;;;11.40;96.80;;;;;;5035630;28;20026;-74
2022/10/12 04:00:15;;;;;;;21.00;8.90;;;11.40;96.80;;;;;;5035884;28;20100;-73
2022/10/12 04:02:40;;;;;;;15.23;8.25;;;11.40;96.80;;;;;;5050978;28;20501;-73
2022/10/12 04:05:06;;;;;;;17.80;8.75;;;11.40;96.80;;;;;;5054759;28;20037;-73
2022/10/12 04:07:32;;;;;;;16.13;7.65;;;11.30;96.80;;;;;;5055344;28;20017;-70
2022/10/12 04:09:58;;;;;;;14.48;7.80;;;11.40;96.80;;;;;;5055386;28;20025;-73
2022/10/12 04:12:23;;;;;;;13.52;7.93;;;11.30;96.80;;;;;;5055332;28;20014;-73
2022/10/12 04:14:49;;;;;;;12.95;7.95;;;11.30;96.70;;;;;;5054947;28;20051;-73
2022/10/12 04:17:15;;;;;;;18.80;8.27;;;11.30;96.70;;;;;;5055381;28;20099;-73
2022/10/12 04:19:41;;;;;;;15.10;8.45;;;11.30;96.60;;;;;;5038221;28;20079;-73
2022/10/12 04:22:07;;;;;;;14.52;7.47;;;11.30;96.70;;;;;;5053399;28;20032;-73
2022/10/12 04:24:32;;;;;;;13.02;8.20;;;11.30;96.70;;;;;;5055102;28;20382;-72
2022/10/12 04:26:58;;;;;;;16.00;8.90;;;11.30;96.70;;;;;;5055037;28;20020;-73
2022/10/12 04:29:24;;;;;;;18.33;9.00;;;11.20;96.70;;;;;;5055035;28;20017;-73
2022/10/12 04:31:49;;;;;;;19.30;8.95;;;11.30;96.80;;;;;;5055032;28;20029;-73
2022/10/12 04:34:15;;;;;;;15.63;9.18;;;11.20;96.80;;;;;;5053247;28;20052;-73
2022/10/12 04:36:41;;;;;;;15.60;9.50;;;11.20;96.80;;;;;;5034864;28;20076;-73
2022/10/12 04:39:06;;;;;;;17.95;9.48;;;11.20;96.80;;;;;;5035534;28;20040;-67
2022/10/12 04:41:32;;;;;;;15.13;8.68;;;11.20;96.70;;;;;;5034846;28;20475;-71
2022/10/12 04:43:58;;;;;;;13.27;8.63;;;11.20;96.70;;;;;;5034852;28;20053;-67
2022/10/12 04:46:23;;;;;;;15.25;9.00;;;11.20;96.70;;;;;;5035041;28;20070;-71
2022/10/12 04:48:49;;;;;;;15.40;9.40;;;11.20;96.80;;;;;;5034660;28;20540;-71
2022/10/12 04:51:14;;;;;;;21.60;9.45;;;11.20;96.70;;;;;;5053959;28;20036;-70
2022/10/12 04:53:40;;;;;;;18.27;8.88;;;11.10;96.50;;;;;;5045167;28;20027;-68
2022/10/12 04:56:06;;;;;;;13.85;8.35;;;11.10;96.40;;;;;;5034968;28;20044;-72
2022/10/12 04:58:32;;;;;;;15.55;8.73;;;11.10;96.40;;;;;;5029339;28;20059;-72
2022/10/12 05:00:57;;;;;;;15.18;9.25;;;11.00;96.60;;;;;;5044320;28;20026;-73
2022/10/12 05:03:23;;;;;;;14.32;8.80;;;11.00;96.80;;;;;;5026947;28;20032;-73
2022/10/12 05:05:49;;;;;;;20.50;10.32;;;11.00;96.70;;;;;;5043617;28;20030;-71
2022/10/12 05:08:15;;;;;;;18.70;9.90;;;11.10;96.50;;;;;;5031804;28;20033;-68
2022/10/12 05:10:40;;;;;;;19.33;10.98;;;11.10;96.40;;;;;;5032581;28;20030;-71
2022/10/12 05:13:06;;;;;;;15.02;9.82;;;11.10;96.40;;;;;;5033959;28;20049;-73
2022/10/12 05:15:32;;;;;;;18.85;10.63;;;11.10;96.30;;;;;;5034060;28;20033;-72
2022/10/12 05:17:58;;;;;;;21.55;10.77;;;11.10;96.30;;;;;;5034088;28;20087;-72
2022/10/12 05:20:23;;;;;;;17.88;10.25;;;11.00;96.30;;;;;;5033664;28;20033;-71
2022/10/12 05:22:49;;;;;;;19.00;10.70;;;11.10;96.10;;;;;;5053705;28;20118;-72
2022/10/12 05:25:15;;;;;;;19.55;10.45;;;11.10;95.40;;;;;;5053956;28;20489;-72
2022/10/12 05:27:40;;;;;;;20.77;10.90;;;11.20;95.20;;;;;;5052667;28;20032;-72
2022/10/12 05:30:07;;;;;;;20.63;10.90;;;11.20;95.10;;;;;;5053958;28;20021;-70
2022/10/12 05:32:33;;;;;;;22.50;10.57;;;11.20;95.00;;;;;;5053823;28;20025;-71
2022/10/12 05:34:59;;;;;;;17.60;10.25;;;11.20;95.00;;;;;;5053493;28;20033;-73
2022/10/12 05:37:24;;;;;;;20.73;10.15;;;11.10;95.00;;;;;;5034955;28;20080;-72
2022/10/12 05:39:50;;;;;;;18.80;9.02;;;11.10;95.10;;;;;;5033798;28;20018;-73
2022/10/12 05:42:16;;;;;;;16.95;8.43;;;11.10;95.20;;;;;;5033816;28;20029;-73
2022/10/12 05:44:42;;;;;;;19.02;9.18;;;11.10;95.40;;;;;;5033922;28;20021;-73
2022/10/12 05:47:08;;;;;;;14.52;8.73;;;11.10;95.50;;;;;;5033481;28;20025;-71
2022/10/12 05:49:33;;;;;;;17.38;9.95;;;11.10;95.40;;;;;;5033217;28;20017;-72
2022/10/12 05:51:59;;;;;;;18.05;9.50;;;11.00;95.60;;;;;;5022040;28;20032;-73
2022/10/12 05:54:24;;;;;;;17.40;8.90;;;11.00;95.60;;;;;;5032799;28;20025;-72
2022/10/12 05:56:50;;;;;;;19.83;9.88;;;11.00;95.70;;;;;;5034650;28;20033;-73
2022/10/12 05:59:16;;;;;;;20.45;9.63;;;11.00;95.60;;;;;;5030043;28;20040;-73
2022/10/12 06:01:41;;;;;;;13.75;8.90;;;10.80;96.00;;;;;;5033015;28;20382;-73
2022/10/12 06:04:07;;;;;;;16.75;9.35;;;10.80;95.90;;;;;;5033137;28;20764;-74
2022/10/12 06:06:33;;;;;;;17.70;9.65;;;10.90;95.70;;;;;;5022789;28;20025;-72
2022/10/12 06:08:58;;;;;;;17.20;10.68;;;11.00;95.50;;;;;;5037420;28;20083;-71
2022/10/12 06:11:24;;;;;;;21.98;10.45;;;10.90;95.80;;;;;;5035339;28;20048;-71
2022/10/12 06:13:50;;;;;;;16.73;10.48;;;10.90;95.60;;;;;;5044684;28;20029;-72
2022/10/12 06:16:16;;;;;;;18.98;11.07;;;10.90;95.60;;;;;;5032992;28;20475;-68
2022/10/12 06:18:42;;;;;;;19.98;10.65;;;10.90;95.70;;;;;;5032474;28;20025;-71
2022/10/12 06:21:07;;;;;;;17.92;10.25;;;10.90;95.60;;;;;;5030928;28;20033;-70
2022/10/12 06:23:33;;;;;;;16.67;10.00;;;10.70;96.40;;;;;;5032102;28;20083;-71
2022/10/12 06:25:58;;;;;;;16.95;10.15;;;10.50;97.10;;;;;;5047882;28;20032;-69
2022/10/12 06:28:24;;;;;;;20.02;10.32;;;10.40;97.20;;;;;;5031977;28;20029;-73
2022/10/12 06:30:57;;;;;;;17.73;11.18;;;10.40;97.40;;;;;;5032774;28;20155;-68
2022/10/12 06:33:24;;;;;;;24.98;12.48;;;10.40;97.50;;;;;;5032478;28;20375;-71
2022/10/12 06:35:50;;;;;;;22.60;11.98;;;10.30;97.60;;;;;;5032905;28;20495;-70
2022/10/12 06:38:15;;;;;;;22.23;10.95;;;10.30;97.70;;;;;;5032656;28;20017;-71
2022/10/12 06:40:41;;;;;;;19.88;11.13;;;10.30;97.90;;;;;;5033120;28;20025;-69
2022/10/12 06:43:07;;;;;;;15.80;11.40;;;10.30;98.10;;;;;;5051170;28;20039;-72
2022/10/12 06:45:33;;;;;;;26.85;11.82;;;10.30;97.90;;;;;;5052886;28;20134;-70
2022/10/12 06:47:59;;;;;;;19.55;10.82;;;10.30;98.00;;;;;;5052304;28;20029;-69
2022/10/12 06:50:25;;;;;;;24.48;11.30;;;10.40;98.10;;;;;;5052698;28;20088;-71
2022/10/12 06:52:52;;;;;;;19.15;11.02;;;10.40;98.30;;;;;;5051291;28;20028;-72
2022/10/12 06:55:18;;;;;;;17.83;11.38;;;10.40;98.40;;;;;;5052640;28;20540;-70
2022/10/12 06:57:43;;;;;;;18.42;11.05;;;10.40;98.30;;;;;;5034751;28;20033;-70
2022/10/12 07:00:10;;;;;;;23.42;10.07;;;10.50;98.40;;;;;;5032811;28;20040;-68
2022/10/12 07:02:35;;;;;;;22.08;10.25;;;10.60;98.40;;;;;;5032415;28;20036;-69
2022/10/12 07:05:01;;;;;;;22.08;11.23;;;10.60;98.80;;;;;;5032508;28;20026;-70
2022/10/12 07:07:31;;;;;;;23.33;10.73;;;10.70;99.20;;;;;;5032492;28;20088;-70
2022/10/12 07:09:57;;;;;;;19.50;10.40;;;10.70;99.10;;;;;;5033579;28;20115;-69
2022/10/12 07:12:22;;;;;;;19.73;9.95;;;10.80;98.90;;;;;;5043738;28;20528;-71
2022/10/12 07:14:48;;;;;;;19.33;10.15;;;10.80;98.90;;;;;;5032583;28;20364;-71
2022/10/12 07:17:13;;;;;;;18.95;9.90;;;10.90;99.00;;;;;;5034833;28;20036;-70
2022/10/12 07:19:39;;;;;;;20.10;10.50;;;10.90;98.90;;;;;;5035246;28;20068;-69
2022/10/12 07:22:05;;;;;;;18.02;10.68;;;11.00;98.80;;;;;;5036277;28;20021;-73
2022/10/12 07:24:37;;;;;;;21.17;10.27;;;11.00;98.60;;;;;;5036407;28;20546;-72
2022/10/12 07:27:06;;;;;;;18.35;9.85;;;11.00;98.70;;;;;;5041665;28;20032;-73
2022/10/12 07:29:33;;;;;;;14.75;8.82;;;11.10;98.70;;;;;;5054944;28;20053;-73
2022/10/12 07:31:59;;;;;;;15.25;8.60;;;11.20;98.80;;;;;;5055671;28;20025;-73
2022/10/12 07:34:26;;;;;;;12.68;8.80;;;11.20;98.50;;;;;;5056207;28;20029;-72
2022/10/12 07:36:52;;;;;;;14.57;7.93;;;11.20;98.50;;;;;;5055996;28;20146;-73
2022/10/12 07:39:18;;;;;;;13.90;9.10;;;11.20;98.10;;;;;;5054706;28;20133;-73
2022/10/12 07:41:43;;;;;;;15.55;8.95;;;11.30;98.30;;;;;;5045118;28;20423;-73
2022/10/12 07:44:10;;;;;;;14.75;8.85;;;11.40;98.10;;;;;;5035953;28;20486;-73
2022/10/12 07:46:35;;;;;;;16.63;8.38;;;11.30;98.20;;;;;;5034323;28;20025;-73
2022/10/12 07:49:01;;;;;;;16.05;8.48;;;11.40;97.90;;;;;;5035668;28;20382;-73
2022/10/12 07:51:29;;;;;;;18.83;10.57;;;11.40;98.00;;;;;;5034663;28;20497;-73
2022/10/12 07:53:55;;;;;;;19.85;10.13;;;11.50;97.90;;;;;;5037068;28;20030;-73
2022/10/12 07:56:20;;;;;;;15.38;8.02;;;11.40;97.90;;;;;;5041459;28;20128;-73
2022/10/12 07:58:51;;;;;;;21.58;10.40;;;11.40;97.70;;;;;;5055552;28;20071;-73
2022/10/12 08:01:18;;;;;;;16.08;8.80;;;11.50;97.80;;;;;;5055534;28;20025;-73
2022/10/12 08:03:43;;;;;;;23.45;9.07;;;11.50;97.80;;;;;;5054159;28;20021;-73
2022/10/12 08:06:21;;;;;;;17.05;8.63;;;11.50;97.90;;;;;;5055551;28;20093;-73
2022/10/12 08:08:46;;;;;;;17.52;8.93;;;11.60;97.80;;;;;;5055276;28;20056;-73
2022/10/12 08:11:12;;;;;;;16.27;8.68;;;11.60;98.00;;;;;;5048515;28;20057;-73
2022/10/12 08:13:38;;;;;;;21.30;10.75;;;11.60;98.00;;;;;;5044917;28;20474;-73
2022/10/12 08:16:06;;;;;;;18.23;10.10;;;11.60;97.90;;;;;;5054938;28;20108;-73
2022/10/12 08:18:32;;;;;;;19.02;10.57;;;11.60;97.90;;;;;;5055283;28;20025;-73
2022/10/12 08:20:58;;;;;;;16.38;9.43;;;11.60;98.00;;;;;;5055111;28;20047;-73
2022/10/12 08:23:23;;;;;;;20.90;9.52;;;11.60;98.00;;;;;;5054888;28;20037;-70
2022/10/12 08:25:53;;;;;;;12.60;7.90;;;11.60;97.90;;;;;;5055186;28;20029;-73
2022/10/12 08:28:19;;;;;;;15.32;8.95;;;11.70;97.70;;;;;;5045401;28;20029;-73
2022/10/12 08:30:46;;;;;;;19.67;9.98;;;11.70;98.00;;;;;;5047748;28;20532;-73
2022/10/12 08:33:12;;;;;;;15.45;8.73;;;11.70;98.10;;;;;;5054568;28;20092;-73
2022/10/12 08:35:41;;;;;;;18.30;9.20;;;11.70;98.00;;;;;;5055081;28;20037;-73
2022/10/12 08:38:10;;;;;;;16.40;8.18;;;11.80;98.00;;;;;;5055042;28;20025;-73
2022/10/12 08:41:09;;;;;;;15.35;9.32;;;11.80;97.90;;;;;;5053510;28;20021;-73
2022/10/12 08:44:12;;;;;;;16.05;9.00;;;11.80;97.70;;;;;;5020619;28;20064;-73
2022/10/12 08:46:38;;;;;;;13.85;9.57;;;11.80;97.80;;;;;;5015027;28;20104;-72
2022/10/12 08:49:15;;;;;;;15.80;8.45;;;11.90;97.80;;;;;;5015048;28;20085;-73
2022/10/12 08:51:53;;;;;;;16.48;8.85;;;11.90;97.70;;;;;;5014694;28;20472;-73
2022/10/12 08:54:21;;;;;;;11.85;7.88;;;11.90;97.90;;;;;;5045481;28;20084;-72
2022/10/12 08:56:48;;;;;;;17.20;9.60;;;11.90;97.90;;;;;;5054429;28;20167;-73
2022/10/12 08:59:17;;;;;;;16.85;10.27;;;12.00;98.00;;;;;;5053003;28;20052;-73
2022/10/12 09:02:20;;;;;;;17.80;8.75;;;12.00;98.00;;;;;;5035746;28;20196;-73
2022/10/12 09:05:19;;;;;;;17.60;8.45;;;12.00;97.80;;;;;;5034908;28;20497;-73
2022/10/12 09:08:03;;;;;;;16.20;9.00;;;12.00;98.00;;;;;;5034535;28;20476;-73
2022/10/12 09:10:46;;;;;;;12.75;7.60;;;12.00;98.00;;;;;;5034366;28;20024;-73
2022/10/12 09:13:38;;;;;;;18.90;7.28;;;12.10;97.80;;;;;;5034151;28;20437;-73
2022/10/12 09:16:13;;;;;;;12.40;6.15;;;12.10;98.10;;;;;;5048860;28;20086;-72
2022/10/12 09:18:41;;;;;;;15.95;7.07;;;12.10;97.70;;;;;;5014445;28;20026;-74
2022/10/12 09:21:17;;;;;;;17.75;7.68;;;12.10;97.80;;;;;;5014229;28;20383;-73
2022/10/12 09:23:43;;;;;;;11.02;6.97;;;12.20;97.80;;;;;;5014304;28;20112;-73
2022/10/12 09:26:18;;;;;;;10.00;6.28;;;12.20;97.60;;;;;;5014406;28;20022;-73
2022/10/12 09:28:55;;;;;;;10.65;6.60;;;12.20;97.70;;;;;;5013963;28;20026;-73
2022/10/12 09:31:35;;;;;;;15.88;9.02;;;12.20;97.60;;;;;;5028764;28;20474;-73
2022/10/12 09:34:04;;;;;;;16.02;8.10;;;12.30;97.70;;;;;;5053782;28;20037;-73
2022/10/12 09:36:34;;;;;;;12.18;6.75;;;12.30;97.80;;;;;;5053952;28;20139;-73
2022/10/12 09:39:04;;;;;;;13.43;6.10;;;12.30;97.70;;;;;;5053971;28;20060;-74
2022/10/12 09:41:35;;;;;;;12.98;7.50;;;12.30;97.60;;;;;;5053263;28;20384;-73
2022/10/12 09:44:03;;;;;;;15.52;8.18;;;12.30;97.80;;;;;;5052480;28;20426;-72
2022/10/12 09:46:38;;;;;;;12.70;6.40;;;12.30;97.70;;;;;;5040748;28;20025;-73
2022/10/12 09:49:04;;;;;;;12.20;7.03;;;12.30;97.60;;;;;;5033804;28;20129;-73
2022/10/12 09:51:31;;;;;;;12.80;6.20;;;12.40;97.70;;;;;;5033451;28;20033;-73
2022/10/12 09:54:02;;;;;;;10.32;7.03;;;12.40;97.60;;;;;;5033732;28;20026;-74
2022/10/12 09:56:41;;;;;;;13.85;7.68;;;12.40;97.60;;;;;;5033100;28;20026;-74
2022/10/12 09:59:27;;;;;;;15.88;8.02;;;12.40;97.70;;;;;;5032191;28;20398;-73
2022/10/12 10:02:20;;;;;;;14.50;8.05;;;12.40;97.80;;;;;;5051231;28;20021;-74
2022/10/12 10:04:48;;;;;;;13.85;6.07;;;12.50;97.90;;;;;;5047140;28;20033;-73
2022/10/12 10:07:21;;;;;;;11.60;6.68;;;12.40;97.70;;;;;;5053027;28;20095;-73
2022/10/12 10:09:48;;;;;;;13.85;7.15;;;12.50;97.70;;;;;;5053134;28;20547;-73
2022/10/12 10:12:26;;;;;;;17.38;9.20;;;12.50;98.00;;;;;;5052690;28;20051;-73
2022/10/12 10:14:55;;;;;;;16.23;6.95;;;12.50;98.20;;;;;;5047789;28;20033;-73
2022/10/12 10:17:30;;;;;;;12.70;5.85;;;12.60;97.90;;;;;;5040294;28;20041;-73
2022/10/12 10:19:58;;;;;;;11.70;6.40;;;12.60;97.80;;;;;;5052946;28;20454;-72
2022/10/12 10:22:24;;;;;;;12.88;6.65;;;12.60;97.90;;;;;;5043666;28;20499;-74
2022/10/12 10:24:56;;;;;;;16.02;8.15;;;12.70;98.00;;;;;;5031739;28;20033;-73
2022/10/12 10:27:37;;;;;;;16.85;7.75;;;12.70;98.10;;;;;;5031793;28;20430;-73
2022/10/12 10:30:14;;;;;;;15.35;7.97;;;12.70;98.20;;;;;;5032475;28;20084;-72
2022/10/12 10:32:39;;;;;;;11.50;5.85;;;12.70;98.40;;;;;;5031470;28;20024;-74
2022/10/12 10:35:18;;;;;;;13.73;6.75;;;12.80;98.40;;;;;;5034825;28;20037;-75
2022/10/12 10:37:46;;;;;;;17.77;8.35;;;12.80;98.40;;;;;;5032697;28;20056;-74
2022/10/12 10:40:26;;;;;;;14.15;7.43;;;12.80;98.20;;;;;;5027611;28;20104;-73
2022/10/12 10:42:54;;;;;;;22.77;8.45;;;12.90;98.30;;;;;;5027931;28;20433;-73
2022/10/12 10:45:39;;;;;;;16.42;8.65;;;12.90;98.60;;;;;;5037054;28;20033;-73
2022/10/12 10:48:10;;;;;;;20.02;10.35;;;12.90;99.90;;;;;;5032428;28;20030;-72
2022/10/12 10:50:43;;;;;;;14.98;8.63;;;13.00;99.90;;;;;;5038460;28;20044;-73
2022/10/12 10:53:20;;;;;;;14.60;7.70;;;13.00;99.30;;;;;;5023238;28;20014;-71
2022/10/12 10:56:10;;;;;;;13.30;7.18;;;13.00;98.80;;;;;;5030352;28;20033;-73
2022/10/12 10:58:47;;;;;;;23.27;8.60;;;13.10;98.60;;;;;;5031457;28;20539;-73
2022/10/12 11:01:22;;;;;;;13.13;7.30;;;13.10;98.30;;;;;;5028131;28;20026;-73
2022/10/12 11:04:09;;;;;;;13.27;7.75;;;13.10;98.40;;;;;;5024960;28;20030;-73
2022/10/12 11:07:00;;;;;;;16.50;7.80;;;13.10;98.90;;;;;;5021513;28;20049;-75
2022/10/12 11:09:40;;;;;;;14.40;7.85;;;13.10;98.50;;;;;;5024471;28;20415;-68
2022/10/12 11:12:18;;;;;;;14.52;7.55;;;13.20;98.30;;;;;;5024804;28;20052;-73
2022/10/12 11:14:53;;;;;;;13.05;7.65;;;13.20;98.50;;;;;;5021281;28;20024;-72
2022/10/12 11:17:27;;;;;;;13.50;6.75;;;13.20;98.70;;;;;;5024224;28;20475;-72
2022/10/12 11:20:04;;;;;;;13.07;6.72;;;13.20;99.10;;;;;;5029062;28;20071;-72
2022/10/12 11:22:43;;;;;;;15.15;6.75;;;13.30;99.30;;;;;;5034562;28;20081;-72
2022/10/12 11:25:25;;;;;;;12.55;6.13;;;13.30;99.30;;;;;;5023723;28;20483;-69
2022/10/12 11:27:50;;;;;;;10.55;6.30;;;13.30;98.80;;;;;;5015957;28;20049;-70
2022/10/12 11:30:22;;;;;;;10.40;6.00;;;13.30;98.80;;;;;;5028371;28;20029;-72
2022/10/12 11:33:25;;;;;;;13.25;6.80;;;13.40;99.00;;;;;;5026070;28;20462;-73
2022/10/12 11:35:53;;;;;;;14.85;6.32;;;13.40;99.10;;;;;;5020743;28;20117;-74
2022/10/12 11:38:47;;;;;;;10.70;4.85;;;13.40;98.70;;;;;;5029575;28;20533;-72
2022/10/12 11:41:14;;;;;;;20.02;7.40;;;13.50;99.30;;;;;;5026180;28;20048;-72
2022/10/12 11:43:53;;;;;;;13.65;5.20;;;13.50;99.40;;;;;;5024555;28;20021;-73
2022/10/12 11:46:30;;;;;;;12.60;5.43;;;13.60;99.40;;;;;;5027889;28;20060;-73
2022/10/12 11:49:05;;;;;;;14.13;5.13;;;13.60;99.50;;;;;;5032869;28;20021;-73
2022/10/12 11:51:30;;;;;;;14.95;5.30;;;13.60;99.30;;;;;;5018110;28;20505;-71
2022/10/12 11:54:03;;;;;;;11.38;5.15;;;13.60;99.10;;;;;;5022697;28;20030;-71
2022/10/12 11:56:31;;;;;;;;;;;13.70;99.10;;;;;;5021832;28;20521;-70
2022/10/12 11:59:03;;;;;;;11.20;4.35;;;13.70;99.10;;;;;;5025714;28;20007;-72
2022/10/12 12:02:23;;;;;;;9.50;4.97;;;13.70;98.80;;;;;;5017329;28;20167;-71
2022/10/12 12:04:49;;;;;;;9.02;4.68;;;13.80;98.80;;;;;;5004650;28;20045;-71
2022/10/12 12:07:47;;;;;;;11.40;4.70;;;13.80;98.80;;;;;;5013349;28;20132;-70
2022/10/12 12:10:24;;;;;;;10.73;3.95;;;13.90;98.60;;;;;;5025804;28;20113;-72
2022/10/12 12:13:10;;;;;;;9.45;4.25;;;13.90;98.60;;;;;;5016562;28;20030;-72
2022/10/12 12:15:37;;;;;;;13.40;4.15;;;13.90;98.60;;;;;;5020615;28;20038;-71
2022/10/12 12:18:12;;;;;;;8.00;4.00;;;14.00;98.50;;;;;;5017114;28;20022;-70
2022/10/12 12:20:43;;;;;;;7.13;3.83;;;14.00;98.50;;;;;;5029041;28;20022;-73
2022/10/12 12:23:25;;;;;;;12.20;4.43;;;14.00;98.50;;;;;;5031725;28;20034;-70
2022/10/12 12:26:09;;;;;;;9.47;3.70;;;14.10;98.30;;;;;;5021563;28;20087;-72
2022/10/12 12:28:37;;;;;;;7.20;3.60;;;14.10;98.40;;;;;;5029695;28;20382;-70
2022/10/12 12:31:27;;;;;;;10.95;3.58;;;14.20;98.60;;;;;;5026563;28;20101;-73
2022/10/12 12:34:14;;;;;;;14.80;4.38;;;14.30;98.40;;;;;;5019251;28;20033;-71
2022/10/12 12:36:43;;;;;;;12.07;3.65;;;14.30;97.60;;;;;;5020627;28;20040;-71
2022/10/12 12:39:32;;;;;;;9.27;3.78;;;14.30;97.80;;;;;;5026959;28;20060;-71
2022/10/12 12:42:01;;;;;;;8.02;3.45;;;14.30;98.10;;;;;;5018887;28;20026;-71
2022/10/12 12:44:43;;;;;;;12.55;4.25;;;14.40;98.10;;;;;;5031265;28;20160;-70
2022/10/12 12:47:09;;;;;;;;;;;14.40;98.10;;;;;;5033790;28;20022;-65
2022/10/12 12:49:56;;;;;;;10.88;3.53;;;14.40;98.00;;;;;;5027357;28;19928;-67
2022/10/12 12:52:40;;;;;;;11.38;3.95;;;14.40;97.90;;;;;;5030154;28;20513;-69
2022/10/12 12:55:24;;;;;;;10.43;3.53;;;14.40;97.60;;;;;;5031216;28;20029;-70